Time;durP1;ratioP1;P1;durP2;ratioP2;P2;SDS_P1;SDS_P2;PMS_P1;PMS_P2;Temp;Humidity;BMP_temperature;BMP_pressure;BME280_temperature;BME280_humidity;BME280_pressure;Samples;Min_cycle;Max_cycle;Signal;HPM_P1;HPM_P2
2024/01/25 00:01:25;;;;;;;4.38;1.60;;;10.50;99.90;;;;;;5032975;28;20056;-43
2024/01/25 00:03:51;;;;;;;4.28;1.60;;;10.50;99.90;;;;;;5032729;28;20442;-43
2024/01/25 00:06:17;;;;;;;4.47;1.77;;;10.40;99.90;;;;;;5033972;28;20033;-45
2024/01/25 00:08:42;;;;;;;5.57;1.75;;;10.40;99.90;;;;;;5032051;28;20034;-43
2024/01/25 00:11:09;;;;;;;8.25;1.85;;;10.40;99.90;;;;;;5033560;28;20399;-45
2024/01/25 00:13:37;;;;;;;4.28;1.58;;;10.40;99.90;;;;;;5033993;28;20101;-43
2024/01/25 00:16:03;;;;;;;5.47;1.80;;;10.40;99.90;;;;;;5033828;28;20026;-43
2024/01/25 00:18:29;;;;;;;5.57;1.67;;;10.40;99.90;;;;;;5032951;28;20029;-44
2024/01/25 00:20:55;;;;;;;5.82;1.90;;;10.40;99.90;;;;;;5032970;28;20025;-44
2024/01/25 00:23:21;;;;;;;5.78;2.00;;;10.40;99.90;;;;;;5032096;28;20067;-44
2024/01/25 00:25:47;;;;;;;7.57;2.05;;;10.40;99.90;;;;;;5032607;28;20347;-43
2024/01/25 00:28:12;;;;;;;5.93;1.70;;;10.40;99.90;;;;;;5031138;28;20364;-43
2024/01/25 00:30:39;;;;;;;5.10;2.15;;;10.40;99.90;;;;;;5032394;28;20586;-44
2024/01/25 00:33:05;;;;;;;4.45;1.42;;;10.40;99.90;;;;;;5032145;28;20025;-44
2024/01/25 00:35:31;;;;;;;4.65;1.67;;;10.30;99.90;;;;;;5033473;28;20441;-45
2024/01/25 00:37:57;;;;;;;6.35;2.10;;;10.40;99.90;;;;;;5031687;28;20558;-43
2024/01/25 00:40:23;;;;;;;5.28;1.60;;;10.40;99.90;;;;;;5031847;28;20022;-44
2024/01/25 00:42:52;;;;;;;9.55;1.88;;;10.40;99.90;;;;;;5031806;28;20068;-43
2024/01/25 00:45:22;;;;;;;5.13;1.92;;;10.30;99.90;;;;;;5034140;28;20021;-43
2024/01/25 00:47:48;;;;;;;6.95;2.00;;;10.30;99.90;;;;;;5032072;28;20060;-44
2024/01/25 00:50:17;;;;;;;5.25;1.73;;;10.30;99.90;;;;;;5031948;28;20373;-44
2024/01/25 00:52:46;;;;;;;5.80;1.80;;;10.40;99.90;;;;;;5031352;28;20528;-44
2024/01/25 00:55:13;;;;;;;8.18;2.17;;;10.30;99.90;;;;;;5032448;28;20464;-45
2024/01/25 00:57:39;;;;;;;5.90;1.77;;;10.30;99.90;;;;;;5032766;28;20021;-44
2024/01/25 01:00:06;;;;;;;5.55;1.73;;;10.30;99.90;;;;;;5032988;28;20032;-43
2024/01/25 01:02:36;;;;;;;6.63;1.70;;;10.30;99.90;;;;;;5031505;28;20479;-45
2024/01/25 01:05:02;;;;;;;6.55;1.92;;;10.30;99.90;;;;;;5031427;28;20025;-45
2024/01/25 01:07:28;;;;;;;4.75;1.52;;;10.30;99.90;;;;;;5033051;28;20656;-44
2024/01/25 01:09:54;;;;;;;6.43;1.73;;;10.30;99.90;;;;;;5031424;28;20100;-45
2024/01/25 01:12:19;;;;;;;6.30;1.98;;;10.30;99.90;;;;;;5031674;28;20017;-44
2024/01/25 01:14:45;;;;;;;4.72;1.83;;;10.30;99.90;;;;;;5032021;28;20044;-44
2024/01/25 01:17:11;;;;;;;3.78;1.50;;;10.30;99.90;;;;;;5031946;28;20025;-44
2024/01/25 01:19:36;;;;;;;6.10;1.90;;;10.30;99.90;;;;;;5031828;28;20447;-43
2024/01/25 01:22:02;;;;;;;4.80;1.48;;;10.30;99.90;;;;;;5031956;28;20034;-44
2024/01/25 01:24:28;;;;;;;6.10;1.90;;;10.20;99.90;;;;;;5031889;28;20033;-43
2024/01/25 01:26:53;;;;;;;4.43;1.50;;;10.20;99.90;;;;;;5031637;28;20079;-44
2024/01/25 01:29:19;;;;;;;5.30;1.70;;;10.20;99.90;;;;;;5033273;28;20033;-45
2024/01/25 01:31:45;;;;;;;4.70;1.67;;;10.30;99.90;;;;;;5033192;28;20022;-45
2024/01/25 01:34:12;;;;;;;4.20;1.52;;;10.30;99.90;;;;;;5032019;28;20458;-45
2024/01/25 01:36:38;;;;;;;6.35;1.98;;;10.20;99.90;;;;;;5033181;28;20053;-45
2024/01/25 01:39:04;;;;;;;3.42;1.50;;;10.20;99.90;;;;;;5032233;28;20022;-45
2024/01/25 01:41:29;;;;;;;6.35;2.15;;;10.20;99.90;;;;;;5031510;28;20022;-44
2024/01/25 01:43:55;;;;;;;4.30;1.83;;;10.20;99.90;;;;;;5031825;28;20491;-43
2024/01/25 01:46:32;;;;;;;3.35;1.45;;;10.20;99.90;;;;;;5032966;28;20022;-43
2024/01/25 01:48:58;;;;;;;6.88;1.98;;;10.20;99.90;;;;;;5031372;28;20543;-44
2024/01/25 01:51:24;;;;;;;4.88;1.77;;;10.20;99.90;;;;;;5031929;28;20100;-43
2024/01/25 01:53:50;;;;;;;4.95;1.60;;;10.20;99.90;;;;;;5032445;28;20483;-45
2024/01/25 01:56:17;;;;;;;5.35;1.67;;;10.20;99.90;;;;;;5032440;28;20034;-45
2024/01/25 01:58:43;;;;;;;5.95;1.95;;;10.20;99.90;;;;;;5031961;28;20025;-45
2024/01/25 02:01:09;;;;;;;4.82;1.77;;;10.20;99.90;;;;;;5030947;28;20029;-45
2024/01/25 02:03:34;;;;;;;6.07;1.83;;;10.20;99.90;;;;;;5031666;28;20144;-45
2024/01/25 02:06:02;;;;;;;7.43;1.80;;;10.20;99.90;;;;;;5031440;28;20467;-45
2024/01/25 02:08:29;;;;;;;5.22;1.80;;;10.20;99.90;;;;;;5030840;28;20504;-43
2024/01/25 02:10:55;;;;;;;4.47;1.65;;;10.20;99.90;;;;;;5032057;28;20032;-44
2024/01/25 02:13:22;;;;;;;6.78;2.00;;;10.20;99.90;;;;;;5030564;28;20018;-45
2024/01/25 02:15:47;;;;;;;4.35;1.60;;;10.20;99.90;;;;;;5031981;28;20089;-43
2024/01/25 02:18:14;;;;;;;7.55;2.03;;;10.20;99.90;;;;;;5031225;28;20159;-45
2024/01/25 02:20:40;;;;;;;3.88;1.60;;;10.20;99.90;;;;;;5032042;28;20017;-44
2024/01/25 02:23:06;;;;;;;4.93;1.77;;;10.20;99.90;;;;;;5030677;28;20029;-45
2024/01/25 02:25:31;;;;;;;5.13;1.60;;;10.20;99.90;;;;;;5030592;28;20036;-43
2024/01/25 02:27:57;;;;;;;5.00;1.67;;;10.20;99.90;;;;;;5030820;28;20100;-43
2024/01/25 02:30:22;;;;;;;4.88;1.60;;;10.20;99.90;;;;;;5030636;28;20029;-45
2024/01/25 02:32:48;;;;;;;4.90;1.42;;;10.20;99.90;;;;;;5033830;28;20022;-43
2024/01/25 02:35:14;;;;;;;3.80;1.30;;;10.20;99.90;;;;;;5036441;28;20028;-45
2024/01/25 02:37:39;;;;;;;4.50;1.50;;;10.10;99.90;;;;;;5036065;28;20426;-44
2024/01/25 02:40:05;;;;;;;5.22;1.75;;;10.20;99.90;;;;;;5036493;28;20080;-44
2024/01/25 02:42:31;;;;;;;5.32;1.88;;;10.10;99.90;;;;;;5034001;28;20479;-43
2024/01/25 02:44:56;;;;;;;6.03;1.77;;;10.10;99.90;;;;;;5034021;28;20075;-44
2024/01/25 02:47:22;;;;;;;3.95;1.42;;;10.10;99.90;;;;;;5035811;28;20044;-45
2024/01/25 02:49:48;;;;;;;4.10;1.70;;;10.10;99.90;;;;;;5035165;28;20488;-45
2024/01/25 02:52:13;;;;;;;3.45;1.33;;;10.10;99.90;;;;;;5034339;28;20120;-44
2024/01/25 02:54:39;;;;;;;4.25;1.40;;;10.10;99.90;;;;;;5034392;28;20025;-44
2024/01/25 02:57:04;;;;;;;6.30;1.80;;;10.10;99.90;;;;;;5035822;28;20033;-44
2024/01/25 02:59:30;;;;;;;5.30;1.58;;;10.10;99.90;;;;;;5035888;28;20566;-45
2024/01/25 03:01:57;;;;;;;4.57;1.48;;;10.10;99.90;;;;;;5034734;28;20487;-45
2024/01/25 03:04:22;;;;;;;4.60;1.52;;;10.10;99.90;;;;;;5033862;28;20030;-45
2024/01/25 03:06:48;;;;;;;5.40;1.65;;;10.10;99.90;;;;;;5035064;28;20045;-45
2024/01/25 03:09:14;;;;;;;3.03;1.33;;;10.10;99.90;;;;;;5034367;28;20388;-43
2024/01/25 03:11:40;;;;;;;4.22;1.50;;;10.10;99.90;;;;;;5033783;28;20555;-45
2024/01/25 03:14:06;;;;;;;4.60;1.52;;;10.10;99.90;;;;;;5035941;28;20029;-44
2024/01/25 03:16:31;;;;;;;4.18;1.58;;;10.10;99.90;;;;;;5033487;28;20372;-45
2024/01/25 03:18:57;;;;;;;7.90;1.77;;;10.10;99.90;;;;;;5034908;28;20479;-43
2024/01/25 03:21:23;;;;;;;7.15;1.58;;;10.10;99.90;;;;;;5033999;28;20022;-43
2024/01/25 03:23:49;;;;;;;3.95;1.45;;;10.10;99.90;;;;;;5034024;28;20026;-43
2024/01/25 03:26:14;;;;;;;4.50;1.52;;;10.10;99.90;;;;;;5033937;28;20039;-43
2024/01/25 03:28:40;;;;;;;4.63;1.60;;;10.10;99.90;;;;;;5033155;28;20132;-45
2024/01/25 03:31:06;;;;;;;4.93;1.83;;;10.10;99.90;;;;;;5033607;28;20431;-45
2024/01/25 03:33:32;;;;;;;4.60;1.58;;;10.10;99.90;;;;;;5033527;28;20025;-44
2024/01/25 03:36:05;;;;;;;6.55;1.73;;;10.10;99.90;;;;;;5034973;28;20052;-43
2024/01/25 03:38:31;;;;;;;3.75;1.58;;;10.10;99.90;;;;;;5034371;28;20140;-45
2024/01/25 03:40:58;;;;;;;3.38;1.42;;;10.10;99.90;;;;;;5032942;28;20030;-44
2024/01/25 03:43:27;;;;;;;4.13;1.20;;;10.10;99.90;;;;;;5034309;28;20025;-45
2024/01/25 03:45:52;;;;;;;8.15;1.88;;;10.10;99.90;;;;;;5033732;28;20033;-45
2024/01/25 03:48:18;;;;;;;5.85;1.80;;;10.10;99.90;;;;;;5033183;28;20044;-44
2024/01/25 03:50:44;;;;;;;4.35;1.58;;;10.10;99.90;;;;;;5032935;28;20032;-45
2024/01/25 03:53:09;;;;;;;4.22;1.60;;;10.00;99.90;;;;;;5033287;28;20029;-43
2024/01/25 03:55:35;;;;;;;3.65;1.50;;;10.10;99.90;;;;;;5032654;28;20442;-44
2024/01/25 03:58:01;;;;;;;5.55;1.45;;;10.00;99.90;;;;;;5033473;28;20021;-43
2024/01/25 04:00:26;;;;;;;4.75;1.50;;;10.10;99.90;;;;;;5034217;28;20369;-45
2024/01/25 04:02:52;;;;;;;3.40;1.48;;;10.10;99.90;;;;;;5035279;28;20099;-45
2024/01/25 04:05:18;;;;;;;5.47;1.65;;;10.10;99.90;;;;;;5032806;28;20051;-43
2024/01/25 04:07:43;;;;;;;5.28;1.67;;;10.10;99.90;;;;;;5034524;28;20083;-43
2024/01/25 04:10:09;;;;;;;4.32;1.23;;;10.10;99.90;;;;;;5033608;28;20065;-44
2024/01/25 04:12:35;;;;;;;5.40;1.50;;;10.10;99.90;;;;;;5033150;28;20049;-43
2024/01/25 04:15:00;;;;;;;5.93;1.30;;;10.00;99.90;;;;;;5032289;28;20029;-45
2024/01/25 04:17:26;;;;;;;4.80;1.58;;;10.10;99.90;;;;;;5034327;28;20028;-45
2024/01/25 04:19:51;;;;;;;5.32;1.48;;;10.00;99.90;;;;;;5032340;28;20399;-43
2024/01/25 04:22:17;;;;;;;5.18;1.55;;;10.10;99.90;;;;;;5033972;28;20029;-43
2024/01/25 04:24:43;;;;;;;3.53;1.40;;;10.00;99.90;;;;;;5033214;28;20045;-43
2024/01/25 04:27:10;;;;;;;4.72;1.40;;;10.10;99.90;;;;;;5032115;28;20040;-45
2024/01/25 04:29:39;;;;;;;4.32;1.33;;;10.00;99.90;;;;;;5031984;28;20105;-43
2024/01/25 04:32:05;;;;;;;4.63;1.63;;;10.00;99.90;;;;;;5032255;28;20029;-44
2024/01/25 04:34:30;;;;;;;5.22;1.50;;;10.00;99.90;;;;;;5032325;28;20033;-43
2024/01/25 04:36:56;;;;;;;4.25;1.33;;;10.00;99.90;;;;;;5032011;28;20408;-43
2024/01/25 04:39:22;;;;;;;3.00;0.98;;;10.00;99.90;;;;;;5032683;28;20383;-43
2024/01/25 04:41:48;;;;;;;3.40;1.33;;;10.00;99.90;;;;;;5033890;28;20032;-45
2024/01/25 04:44:13;;;;;;;3.72;1.40;;;10.00;99.90;;;;;;5032631;28;20021;-43
2024/01/25 04:46:39;;;;;;;4.60;1.48;;;10.00;99.90;;;;;;5031921;28;20468;-43
2024/01/25 04:49:05;;;;;;;3.90;1.30;;;10.00;99.90;;;;;;5033481;28;20087;-43
2024/01/25 04:51:30;;;;;;;2.53;1.30;;;10.00;99.90;;;;;;5031866;28;20029;-45
2024/01/25 04:53:56;;;;;;;4.07;1.48;;;10.00;99.90;;;;;;5033068;28;20518;-45
2024/01/25 04:56:21;;;;;;;3.22;1.40;;;10.00;99.90;;;;;;5032511;28;20033;-45
2024/01/25 04:58:47;;;;;;;4.63;1.50;;;10.00;99.90;;;;;;5031564;28;20033;-44
2024/01/25 05:01:13;;;;;;;6.25;1.40;;;10.00;99.90;;;;;;5033420;28;20083;-44
2024/01/25 05:03:38;;;;;;;3.47;1.40;;;10.00;99.90;;;;;;5031564;28;20029;-44
2024/01/25 05:06:05;;;;;;;3.10;1.20;;;10.00;99.90;;;;;;5031423;28;20025;-43
2024/01/25 05:08:31;;;;;;;4.10;1.38;;;10.00;99.90;;;;;;5032161;28;20455;-43
2024/01/25 05:10:57;;;;;;;4.68;1.25;;;10.00;99.90;;;;;;5031530;28;20036;-45
2024/01/25 05:13:23;;;;;;;3.95;1.23;;;10.00;99.90;;;;;;5031939;28;20100;-45
2024/01/25 05:15:48;;;;;;;3.92;1.50;;;10.00;99.90;;;;;;5031979;28;20110;-44
2024/01/25 05:18:14;;;;;;;3.92;1.30;;;10.00;99.90;;;;;;5031664;28;20025;-42
2024/01/25 05:20:40;;;;;;;4.43;1.38;;;10.00;99.90;;;;;;5033067;28;20075;-43
2024/01/25 05:23:05;;;;;;;2.90;1.02;;;10.00;99.90;;;;;;5031787;28;20079;-43
2024/01/25 05:25:32;;;;;;;4.50;1.35;;;10.00;99.90;;;;;;5032383;28;20033;-44
2024/01/25 05:27:58;;;;;;;2.88;1.10;;;10.00;99.90;;;;;;5032930;28;20022;-44
2024/01/25 05:30:24;;;;;;;4.13;1.20;;;10.00;99.90;;;;;;5033213;28;20033;-43
2024/01/25 05:32:50;;;;;;;4.47;1.52;;;10.00;99.90;;;;;;5031715;28;20021;-43
2024/01/25 05:35:17;;;;;;;4.25;1.50;;;10.00;99.90;;;;;;5033420;28;20503;-45
2024/01/25 05:37:43;;;;;;;4.45;1.10;;;10.00;99.90;;;;;;5033121;28;20098;-45
2024/01/25 05:40:09;;;;;;;3.45;1.15;;;10.00;99.90;;;;;;5031514;28;20030;-43
2024/01/25 05:42:35;;;;;;;2.05;0.95;;;10.00;99.90;;;;;;5031419;28;20057;-44
2024/01/25 05:45:03;;;;;;;3.72;1.10;;;10.00;99.90;;;;;;5031897;28;20087;-43
2024/01/25 05:47:30;;;;;;;2.75;1.20;;;10.00;99.90;;;;;;5032041;28;20025;-45
2024/01/25 05:49:56;;;;;;;3.28;1.30;;;10.00;99.90;;;;;;5031334;28;20022;-45
2024/01/25 05:52:22;;;;;;;3.30;1.30;;;10.00;99.90;;;;;;5032667;28;20021;-44
2024/01/25 05:54:48;;;;;;;3.53;1.23;;;9.90;99.90;;;;;;5031624;28;20026;-43
2024/01/25 05:57:14;;;;;;;4.13;1.30;;;10.00;99.90;;;;;;5033147;28;20496;-43
2024/01/25 05:59:40;;;;;;;3.92;1.20;;;10.00;99.90;;;;;;5031510;28;20031;-44
2024/01/25 06:02:05;;;;;;;3.45;1.10;;;10.00;99.90;;;;;;5031907;28;20025;-45
2024/01/25 06:04:31;;;;;;;3.08;1.42;;;10.00;99.90;;;;;;5031505;28;20033;-43
2024/01/25 06:06:57;;;;;;;3.40;1.20;;;9.90;99.90;;;;;;5031757;28;20303;-44
2024/01/25 06:09:26;;;;;;;3.10;1.02;;;9.90;99.90;;;;;;5035291;28;20017;-44
2024/01/25 06:11:52;;;;;;;3.95;1.48;;;10.00;99.90;;;;;;5035052;28;20090;-45
2024/01/25 06:14:18;;;;;;;4.50;1.67;;;10.00;99.90;;;;;;5036850;28;20025;-43
2024/01/25 06:16:44;;;;;;;3.90;1.17;;;9.90;99.90;;;;;;5034952;28;20049;-43
2024/01/25 06:19:10;;;;;;;4.15;0.93;;;10.00;99.90;;;;;;5035378;28;20573;-44
2024/01/25 06:21:37;;;;;;;3.72;1.20;;;9.90;99.90;;;;;;5036865;28;20105;-44
2024/01/25 06:24:04;;;;;;;3.38;1.15;;;10.00;99.90;;;;;;5036254;28;20029;-43
2024/01/25 06:26:30;;;;;;;3.20;1.48;;;10.00;99.90;;;;;;5035087;28;20026;-45
2024/01/25 06:28:56;;;;;;;2.47;1.00;;;10.00;99.90;;;;;;5035865;28;20033;-44
2024/01/25 06:31:22;;;;;;;5.00;1.42;;;9.90;99.90;;;;;;5035130;28;20068;-45
2024/01/25 06:33:50;;;;;;;3.63;1.30;;;9.90;99.90;;;;;;5034961;28;20057;-43
2024/01/25 06:36:16;;;;;;;4.57;1.45;;;9.90;99.90;;;;;;5035582;28;20510;-43
2024/01/25 06:38:41;;;;;;;5.20;2.03;;;9.90;99.90;;;;;;5034409;28;20064;-45
2024/01/25 06:41:08;;;;;;;3.28;1.33;;;9.90;99.90;;;;;;5035183;28;20029;-43
2024/01/25 06:43:34;;;;;;;3.10;1.30;;;9.90;99.90;;;;;;5036051;28;20376;-43
2024/01/25 06:45:59;;;;;;;3.78;1.40;;;9.90;99.90;;;;;;5035609;28;20036;-45
2024/01/25 06:48:25;;;;;;;2.55;1.17;;;9.90;99.90;;;;;;5035004;28;20144;-44
2024/01/25 06:50:50;;;;;;;2.30;1.08;;;9.90;99.90;;;;;;5035262;28;20480;-43
2024/01/25 06:53:17;;;;;;;2.60;1.20;;;9.90;99.90;;;;;;5033716;28;20040;-45
2024/01/25 06:55:42;;;;;;;3.00;1.25;;;9.90;99.90;;;;;;5033938;28;20037;-45
2024/01/25 06:58:08;;;;;;;3.80;1.30;;;9.90;99.90;;;;;;5034901;28;20553;-45
2024/01/25 07:00:34;;;;;;;3.08;1.30;;;9.90;99.90;;;;;;5035188;28;20075;-43
2024/01/25 07:03:00;;;;;;;4.20;1.52;;;9.90;99.90;;;;;;5033566;28;20053;-45
2024/01/25 07:05:26;;;;;;;3.05;1.10;;;9.90;99.90;;;;;;5033590;28;20489;-43
2024/01/25 07:07:52;;;;;;;3.78;1.35;;;9.90;99.90;;;;;;5033550;28;20025;-43
2024/01/25 07:10:18;;;;;;;3.40;1.30;;;9.90;99.90;;;;;;5033716;28;20438;-43
2024/01/25 07:12:43;;;;;;;5.80;1.30;;;9.90;99.90;;;;;;5033562;28;20036;-44
2024/01/25 07:15:09;;;;;;;3.28;1.23;;;9.90;99.90;;;;;;5033435;28;20033;-44
2024/01/25 07:17:35;;;;;;;3.55;1.20;;;9.90;99.90;;;;;;5034294;28;20032;-44
2024/01/25 07:20:00;;;;;;;5.20;1.50;;;9.90;99.90;;;;;;5033455;28;20322;-45
2024/01/25 07:22:26;;;;;;;3.33;1.13;;;9.90;99.90;;;;;;5034399;28;20499;-44
2024/01/25 07:24:51;;;;;;;3.03;1.58;;;10.00;99.90;;;;;;5033791;28;20068;-43
2024/01/25 07:27:17;;;;;;;3.35;1.60;;;10.00;99.90;;;;;;5033429;28;20025;-44
2024/01/25 07:29:45;;;;;;;4.43;1.67;;;10.00;99.90;;;;;;5033262;28;20045;-43
2024/01/25 07:32:12;;;;;;;3.50;1.25;;;10.10;99.90;;;;;;5033592;28;20021;-43
2024/01/25 07:34:37;;;;;;;3.35;1.20;;;10.10;99.90;;;;;;5033026;28;20030;-44
2024/01/25 07:37:03;;;;;;;3.75;1.20;;;10.10;99.90;;;;;;5033023;28;20036;-43
2024/01/25 07:39:29;;;;;;;3.90;1.27;;;10.20;99.90;;;;;;5032940;28;20041;-45
2024/01/25 07:41:54;;;;;;;4.15;1.40;;;10.20;99.90;;;;;;5035405;28;20033;-43
2024/01/25 07:44:20;;;;;;;3.67;1.40;;;10.30;99.90;;;;;;5033593;28;20025;-44
2024/01/25 07:46:47;;;;;;;3.70;1.15;;;10.40;99.90;;;;;;5033771;28;20034;-45
2024/01/25 07:49:12;;;;;;;4.57;1.20;;;10.40;99.90;;;;;;5032950;28;20014;-44
2024/01/25 07:51:38;;;;;;;4.10;1.30;;;10.50;99.90;;;;;;5033073;28;20036;-44
2024/01/25 07:54:04;;;;;;;4.90;1.70;;;10.60;99.90;;;;;;5034021;28;20025;-44
2024/01/25 07:56:29;;;;;;;3.03;1.40;;;10.60;99.90;;;;;;5035045;28;20056;-44
2024/01/25 07:58:55;;;;;;;2.45;1.17;;;10.70;99.90;;;;;;5032605;28;20104;-45
2024/01/25 08:01:21;;;;;;;3.88;1.25;;;10.70;99.90;;;;;;5033363;28;20440;-44
2024/01/25 08:03:47;;;;;;;4.70;1.23;;;10.80;99.90;;;;;;5032582;28;20030;-43
2024/01/25 08:06:13;;;;;;;2.55;1.10;;;10.90;99.90;;;;;;5032445;28;20028;-45
2024/01/25 08:08:39;;;;;;;3.85;1.45;;;11.00;99.90;;;;;;5032544;28;20109;-43
2024/01/25 08:11:05;;;;;;;1.85;0.98;;;11.10;99.90;;;;;;5033905;28;20018;-45
2024/01/25 08:13:31;;;;;;;3.15;1.40;;;11.20;99.90;;;;;;5033375;28;20402;-45
2024/01/25 08:15:57;;;;;;;3.30;1.30;;;11.30;99.90;;;;;;5032230;28;20025;-45
2024/01/25 08:18:23;;;;;;;2.40;1.20;;;11.30;99.90;;;;;;5032910;28;20045;-44
2024/01/25 08:20:50;;;;;;;2.22;1.13;;;11.40;99.90;;;;;;5035118;28;20053;-44
2024/01/25 08:23:15;;;;;;;3.78;1.25;;;11.50;99.90;;;;;;5033415;28;20025;-44
2024/01/25 08:25:41;;;;;;;2.28;0.82;;;11.50;99.90;;;;;;5032162;28;20511;-45
2024/01/25 08:28:07;;;;;;;3.95;1.35;;;11.60;99.90;;;;;;5032348;28;20025;-45
2024/01/25 08:30:33;;;;;;;2.90;1.10;;;11.80;99.90;;;;;;5031236;28;20592;-44
2024/01/25 08:32:59;;;;;;;2.47;0.88;;;11.90;99.90;;;;;;5032982;28;20028;-44
2024/01/25 08:35:24;;;;;;;3.33;1.20;;;12.00;99.90;;;;;;5032050;28;20025;-43
2024/01/25 08:37:50;;;;;;;3.33;1.17;;;12.00;99.90;;;;;;5032728;28;20415;-43
2024/01/25 08:40:16;;;;;;;2.97;1.20;;;12.10;99.90;;;;;;5031144;28;20025;-43
2024/01/25 08:42:42;;;;;;;2.42;0.90;;;12.20;99.90;;;;;;5033337;28;20032;-45
2024/01/25 08:45:08;;;;;;;1.80;0.85;;;12.30;99.90;;;;;;5032368;28;20034;-45
2024/01/25 08:47:37;;;;;;;2.17;1.17;;;12.40;99.80;;;;;;5032798;28;20475;-43
2024/01/25 08:50:03;;;;;;;1.90;1.00;;;12.50;99.70;;;;;;5032597;28;20029;-45
2024/01/25 08:52:29;;;;;;;1.40;0.90;;;12.70;99.60;;;;;;5032316;28;20026;-44
2024/01/25 08:54:55;;;;;;;1.83;0.95;;;12.70;99.40;;;;;;5033145;28;20025;-44
2024/01/25 08:57:20;;;;;;;2.42;1.10;;;12.80;99.30;;;;;;5031571;28;20384;-44
2024/01/25 08:59:46;;;;;;;1.67;1.00;;;12.90;99.20;;;;;;5033119;28;20036;-45
2024/01/25 09:02:12;;;;;;;1.20;0.70;;;13.10;99.10;;;;;;5031567;28;20072;-45
2024/01/25 09:04:37;;;;;;;2.10;1.08;;;13.10;98.90;;;;;;5031323;28;20025;-45
2024/01/25 09:07:03;;;;;;;2.67;0.85;;;13.30;98.80;;;;;;5031949;28;20034;-45
2024/01/25 09:09:29;;;;;;;1.73;0.80;;;13.40;98.70;;;;;;5032429;28;20375;-43
2024/01/25 09:11:55;;;;;;;1.38;0.90;;;13.50;98.50;;;;;;5033052;28;20037;-44
2024/01/25 09:14:21;;;;;;;2.53;1.17;;;13.60;98.70;;;;;;5029887;28;20387;-45
2024/01/25 09:16:47;;;;;;;2.30;0.93;;;13.70;98.20;;;;;;5032028;28;20021;-44
2024/01/25 09:19:12;;;;;;;3.20;1.17;;;13.80;98.10;;;;;;5031793;28;20101;-45
2024/01/25 09:21:39;;;;;;;2.05;0.90;;;13.90;97.90;;;;;;5032828;28;20120;-44
2024/01/25 09:24:06;;;;;;;1.05;0.60;;;14.00;97.80;;;;;;5032218;28;20116;-44
2024/01/25 09:26:32;;;;;;;2.20;0.90;;;14.10;97.70;;;;;;5031356;28;20075;-43
2024/01/25 09:28:57;;;;;;;3.10;1.17;;;14.20;97.50;;;;;;5031886;28;20029;-43
2024/01/25 09:31:23;;;;;;;2.97;0.90;;;14.40;97.70;;;;;;5032220;28;20083;-44
2024/01/25 09:33:49;;;;;;;3.55;1.00;;;14.40;97.20;;;;;;5032325;28;20025;-44
2024/01/25 09:36:16;;;;;;;3.30;1.10;;;14.50;97.30;;;;;;5032933;28;20025;-44
2024/01/25 09:38:43;;;;;;;2.15;0.90;;;14.70;96.90;;;;;;5032075;28;20025;-45
2024/01/25 09:41:08;;;;;;;1.55;0.90;;;14.70;96.60;;;;;;5033413;28;20539;-43
2024/01/25 09:43:35;;;;;;;2.28;0.80;;;14.80;96.50;;;;;;5036342;28;20116;-45
2024/01/25 09:46:01;;;;;;;3.97;1.20;;;14.90;96.30;;;;;;5036895;28;20036;-44
2024/01/25 09:48:27;;;;;;;3.95;0.85;;;15.00;96.20;;;;;;5035639;28;20116;-44
2024/01/25 09:50:55;;;;;;;1.80;0.80;;;15.10;96.10;;;;;;5035452;28;20061;-43
2024/01/25 09:53:22;;;;;;;2.15;0.90;;;15.20;95.90;;;;;;5034968;28;20044;-44
2024/01/25 09:56:12;;;;;;;3.78;0.93;;;15.30;95.80;;;;;;5035795;28;20107;-43
2024/01/25 09:58:45;;;;;;;2.97;1.23;;;15.30;95.70;;;;;;5035394;28;20030;-44
2024/01/25 10:01:13;;;;;;;2.47;1.00;;;15.50;95.60;;;;;;5035784;28;20025;-44
2024/01/25 10:03:46;;;;;;;2.17;0.95;;;15.50;95.50;;;;;;5036365;28;20029;-45
2024/01/25 10:06:12;;;;;;;2.47;0.95;;;15.60;95.40;;;;;;5034971;28;20025;-44
2024/01/25 10:08:38;;;;;;;1.88;0.98;;;15.70;95.30;;;;;;5034810;28;20053;-44
2024/01/25 10:11:04;;;;;;;2.65;1.00;;;15.80;95.10;;;;;;5034887;28;20022;-43
2024/01/25 10:13:30;;;;;;;3.97;1.10;;;15.80;95.00;;;;;;5034845;28;20018;-45
2024/01/25 10:15:56;;;;;;;3.20;1.05;;;15.90;94.90;;;;;;5035973;28;20036;-45
2024/01/25 10:18:25;;;;;;;2.42;1.10;;;15.90;94.70;;;;;;5035659;28;20049;-43
2024/01/25 10:20:53;;;;;;;2.28;1.13;;;16.00;94.50;;;;;;5035872;28;20025;-44
2024/01/25 10:23:19;;;;;;;1.83;1.05;;;16.10;94.40;;;;;;5034918;28;20026;-45
2024/01/25 10:25:44;;;;;;;2.75;1.10;;;16.10;94.30;;;;;;5034355;28;20040;-45
2024/01/25 10:28:12;;;;;;;2.65;0.90;;;16.20;94.20;;;;;;5034393;28;20067;-44
2024/01/25 10:30:38;;;;;;;3.40;1.30;;;16.20;94.10;;;;;;5035943;28;20357;-43
2024/01/25 10:33:04;;;;;;;1.88;0.80;;;16.20;94.00;;;;;;5034276;28;20018;-44
2024/01/25 10:35:32;;;;;;;2.47;1.00;;;16.30;94.00;;;;;;5035095;28;20037;-44
2024/01/25 10:37:58;;;;;;;2.85;1.00;;;16.30;93.90;;;;;;5034198;28;20032;-44
2024/01/25 10:40:24;;;;;;;2.75;0.88;;;16.30;93.90;;;;;;5034534;28;20042;-44
2024/01/25 10:42:50;;;;;;;2.95;1.00;;;16.30;93.90;;;;;;5035786;28;20033;-45
2024/01/25 10:45:16;;;;;;;2.28;0.80;;;16.30;93.80;;;;;;5035433;28;20041;-43
2024/01/25 10:47:42;;;;;;;1.63;0.95;;;16.40;93.80;;;;;;5035886;28;20337;-44
2024/01/25 10:50:11;;;;;;;3.47;1.30;;;16.40;93.70;;;;;;5035461;28;20472;-44
2024/01/25 10:52:37;;;;;;;1.55;0.80;;;16.40;93.70;;;;;;5034397;28;20033;-45
2024/01/25 10:55:05;;;;;;;1.80;0.95;;;16.50;94.00;;;;;;5034367;28;20021;-45
2024/01/25 10:57:44;;;;;;;2.75;1.25;;;16.50;93.60;;;;;;5034854;28;20025;-45
2024/01/25 11:00:17;;;;;;;1.95;0.82;;;16.50;93.60;;;;;;5035180;28;20028;-45
2024/01/25 11:02:44;;;;;;;2.65;1.00;;;16.50;93.50;;;;;;5034144;28;20022;-44
2024/01/25 11:05:14;;;;;;;2.33;0.80;;;16.50;93.50;;;;;;5033605;28;20026;-45
2024/01/25 11:07:50;;;;;;;2.17;0.80;;;16.60;93.40;;;;;;5034871;28;20105;-45
2024/01/25 11:10:18;;;;;;;1.30;0.70;;;16.60;93.30;;;;;;5033816;28;20567;-45
2024/01/25 11:13:14;;;;;;;2.17;0.98;;;16.70;93.30;;;;;;5033635;28;20029;-43
2024/01/25 11:15:39;;;;;;;3.30;1.08;;;16.70;93.10;;;;;;5033697;28;20060;-44
2024/01/25 11:18:08;;;;;;;2.92;1.10;;;16.70;93.10;;;;;;5034637;28;20053;-43
2024/01/25 11:20:36;;;;;;;1.33;0.60;;;16.80;93.10;;;;;;5033542;28;20029;-45
2024/01/25 11:23:04;;;;;;;2.03;0.95;;;16.80;93.10;;;;;;5033622;28;20034;-45
2024/01/25 11:25:35;;;;;;;2.30;0.95;;;16.80;93.10;;;;;;5033754;28;20030;-43
2024/01/25 11:28:02;;;;;;;3.15;1.15;;;16.80;93.10;;;;;;5034199;28;20395;-44
2024/01/25 11:30:30;;;;;;;1.42;0.85;;;16.80;93.10;;;;;;5033253;28;20025;-44
2024/01/25 11:32:55;;;;;;;3.15;1.10;;;16.80;93.10;;;;;;5033285;28;20033;-45
2024/01/25 11:35:21;;;;;;;2.85;1.00;;;16.90;93.10;;;;;;5033967;28;20025;-44
2024/01/25 11:37:48;;;;;;;2.35;0.90;;;16.90;93.00;;;;;;5033972;28;20455;-45
2024/01/25 11:40:15;;;;;;;2.13;0.90;;;17.00;93.00;;;;;;5034257;28;20036;-44
2024/01/25 11:42:43;;;;;;;2.58;0.93;;;17.00;92.90;;;;;;5033102;28;20044;-44
2024/01/25 11:45:13;;;;;;;2.58;1.08;;;17.10;92.90;;;;;;5034193;28;20716;-44
2024/01/25 11:47:39;;;;;;;3.40;1.27;;;17.20;92.80;;;;;;5034187;28;20095;-44
2024/01/25 11:50:11;;;;;;;2.67;0.88;;;17.30;92.70;;;;;;5033506;28;20022;-44
2024/01/25 11:52:37;;;;;;;2.20;0.93;;;17.40;92.90;;;;;;5031626;28;20028;-44
2024/01/25 11:55:07;;;;;;;1.98;0.93;;;17.50;92.50;;;;;;5032957;28;20029;-45
2024/01/25 11:57:38;;;;;;;3.25;1.00;;;17.50;92.30;;;;;;5032624;28;20163;-45
2024/01/25 12:00:06;;;;;;;2.75;1.00;;;17.60;92.20;;;;;;5032912;28;20025;-45
2024/01/25 12:02:32;;;;;;;2.63;0.95;;;17.70;92.10;;;;;;5032850;28;20021;-44
2024/01/25 12:04:58;;;;;;;2.60;0.95;;;17.80;92.10;;;;;;5031193;28;20022;-44
2024/01/25 12:07:23;;;;;;;1.98;0.80;;;17.80;92.00;;;;;;5033123;28;20030;-44
2024/01/25 12:10:10;;;;;;;3.25;1.00;;;17.90;91.90;;;;;;5032520;28;20496;-44
2024/01/25 12:12:37;;;;;;;2.00;0.90;;;18.00;91.90;;;;;;5031355;28;20380;-44
2024/01/25 12:15:05;;;;;;;2.40;1.00;;;18.00;91.80;;;;;;5033120;28;20025;-45
2024/01/25 12:17:32;;;;;;;3.20;0.93;;;18.10;91.70;;;;;;5034574;28;20056;-43
2024/01/25 12:19:59;;;;;;;2.58;0.90;;;18.20;91.90;;;;;;5032984;28;20017;-44
2024/01/25 12:22:28;;;;;;;2.95;1.00;;;18.30;91.50;;;;;;5034437;28;20029;-44
2024/01/25 12:24:54;;;;;;;3.05;1.10;;;18.30;91.40;;;;;;5033874;28;20052;-44
2024/01/25 12:27:22;;;;;;;1.60;0.82;;;18.40;91.40;;;;;;5033361;28;20487;-45
2024/01/25 12:29:48;;;;;;;1.73;0.85;;;18.40;91.30;;;;;;5032608;28;20434;-43
2024/01/25 12:32:14;;;;;;;3.15;1.05;;;18.50;91.20;;;;;;5033740;28;20026;-45
2024/01/25 12:34:41;;;;;;;3.67;0.63;;;18.50;91.10;;;;;;5032334;28;20369;-44
2024/01/25 12:37:07;;;;;;;3.08;1.00;;;18.50;91.00;;;;;;5032857;28;20032;-44
2024/01/25 12:39:32;;;;;;;1.30;0.77;;;18.60;91.00;;;;;;5032682;28;20021;-43
2024/01/25 12:41:58;;;;;;;1.98;0.73;;;18.60;90.90;;;;;;5031990;28;20037;-43
2024/01/25 12:44:24;;;;;;;2.30;0.80;;;18.70;90.90;;;;;;5031743;28;20100;-44